sensor_id;sensor_type;location;lat;lon;timestamp;pressure;altitude;pressure_sealevel;temperature;humidity
83183;BME280;73077;49.898;16.450;2024-03-23T00:51:36;96559.00;;;21.93;44.88
83183;BME280;73077;49.898;16.450;2024-03-23T00:54:02;96556.19;;;21.94;44.87
83183;BME280;73077;49.898;16.450;2024-03-23T00:56:29;96553.31;;;21.89;45.10
83183;BME280;73077;49.898;16.450;2024-03-23T00:58:56;96552.31;;;21.90;44.99
83183;BME280;73077;49.898;16.450;2024-03-23T01:01:23;96551.50;;;21.90;44.76
83183;BME280;73077;49.898;16.450;2024-03-23T01:03:48;96547.47;;;21.87;44.99
83183;BME280;73077;49.898;16.450;2024-03-23T01:06:16;96549.25;;;21.87;44.91
83183;BME280;73077;49.898;16.450;2024-03-23T01:08:44;96534.47;;;21.86;45.02
83183;BME280;73077;49.898;16.450;2024-03-23T01:11:10;96534.66;;;21.84;44.97
83183;BME280;73077;49.898;16.450;2024-03-23T01:13:36;96528.19;;;21.87;44.78
83183;BME280;73077;49.898;16.450;2024-03-23T01:16:01;96523.91;;;21.79;44.87
83183;BME280;73077;49.898;16.450;2024-03-23T01:18:27;96524.75;;;21.80;44.93
83183;BME280;73077;49.898;16.450;2024-03-23T01:20:53;96527.97;;;21.82;44.98
83183;BME280;73077;49.898;16.450;2024-03-23T01:23:18;96519.22;;;21.75;44.99
83183;BME280;73077;49.898;16.450;2024-03-23T01:25:51;96502.66;;;21.74;45.00
83183;BME280;73077;49.898;16.450;2024-03-23T01:28:17;96497.41;;;21.74;45.02
83183;BME280;73077;49.898;16.450;2024-03-23T01:30:43;96492.13;;;21.74;44.84
83183;BME280;73077;49.898;16.450;2024-03-23T01:33:09;96490.91;;;21.70;44.81
83183;BME280;73077;49.898;16.450;2024-03-23T01:35:34;96490.91;;;21.70;44.82
83183;BME280;73077;49.898;16.450;2024-03-23T01:38:00;96482.81;;;21.72;45.00
83183;BME280;73077;49.898;16.450;2024-03-23T01:40:26;96482.41;;;21.68;44.90
83183;BME280;73077;49.898;16.450;2024-03-23T01:42:56;96481.59;;;21.67;44.85
83183;BME280;73077;49.898;16.450;2024-03-23T01:45:22;96469.84;;;21.70;44.86
83183;BME280;73077;49.898;16.450;2024-03-23T01:47:52;96462.94;;;21.69;44.89
83183;BME280;73077;49.898;16.450;2024-03-23T01:50:21;96458.13;;;21.66;44.81
83183;BME280;73077;49.898;16.450;2024-03-23T01:52:48;96447.38;;;21.67;44.72
83183;BME280;73077;49.898;16.450;2024-03-23T01:55:13;96445.75;;;21.66;44.82
83183;BME280;73077;49.898;16.450;2024-03-23T01:57:39;96443.13;;;21.66;44.74
83183;BME280;73077;49.898;16.450;2024-03-23T02:00:05;96445.97;;;21.65;44.92
83183;BME280;73077;49.898;16.450;2024-03-23T02:02:42;96440.28;;;21.61;45.03
83183;BME280;73077;49.898;16.450;2024-03-23T02:05:08;96433.19;;;21.62;45.10
83183;BME280;73077;49.898;16.450;2024-03-23T02:07:34;96443.13;;;21.60;44.87
83183;BME280;73077;49.898;16.450;2024-03-23T02:10:01;96439.28;;;21.62;44.74
83183;BME280;73077;49.898;16.450;2024-03-23T02:12:27;96433.81;;;21.57;44.98
83183;BME280;73077;49.898;16.450;2024-03-23T02:14:53;96425.91;;;21.57;44.74
83183;BME280;73077;49.898;16.450;2024-03-23T02:17:18;96426.53;;;21.59;44.95
83183;BME280;73077;49.898;16.450;2024-03-23T02:19:44;96418.03;;;21.57;44.80
83183;BME280;73077;49.898;16.450;2024-03-23T02:22:12;96417.59;;;21.54;44.88
83183;BME280;73077;49.898;16.450;2024-03-23T02:24:37;96413.16;;;21.54;45.00
83183;BME280;73077;49.898;16.450;2024-03-23T02:27:04;96411.72;;;21.52;44.99
83183;BME280;73077;49.898;16.450;2024-03-23T02:29:30;96402.44;;;21.56;44.72
83183;BME280;73077;49.898;16.450;2024-03-23T02:31:57;96398.56;;;21.52;44.92
83183;BME280;73077;49.898;16.450;2024-03-23T02:34:24;96397.34;;;21.48;44.99
83183;BME280;73077;49.898;16.450;2024-03-23T02:36:50;96398.56;;;21.52;45.06
83183;BME280;73077;49.898;16.450;2024-03-23T02:39:16;96392.31;;;21.53;44.99
83183;BME280;73077;49.898;16.450;2024-03-23T02:41:41;96388.47;;;21.49;45.08
83183;BME280;73077;49.898;16.450;2024-03-23T02:44:07;96388.66;;;21.47;44.78
83183;BME280;73077;49.898;16.450;2024-03-23T02:46:33;96391.28;;;21.47;44.91
83183;BME280;73077;49.898;16.450;2024-03-23T02:48:59;96395.72;;;21.47;44.99
83183;BME280;73077;49.898;16.450;2024-03-23T02:51:25;96376.72;;;21.45;45.00
83183;BME280;73077;49.898;16.450;2024-03-23T02:53:51;96380.72;;;21.41;45.00
83183;BME280;73077;49.898;16.450;2024-03-23T02:56:17;96375.06;;;21.44;44.76
83183;BME280;73077;49.898;16.450;2024-03-23T02:58:43;96366.78;;;21.47;44.99
83183;BME280;73077;49.898;16.450;2024-03-23T03:01:09;96366.78;;;21.47;44.80
83183;BME280;73077;49.898;16.450;2024-03-23T03:03:36;96374.69;;;21.40;44.85
83183;BME280;73077;49.898;16.450;2024-03-23T03:06:01;96375.47;;;21.41;44.83
83183;BME280;73077;49.898;16.450;2024-03-23T03:08:27;96370.84;;;21.43;44.78
83183;BME280;73077;49.898;16.450;2024-03-23T03:10:52;96361.53;;;21.40;44.95
83183;BME280;73077;49.898;16.450;2024-03-23T03:13:18;96347.78;;;21.45;44.87
83183;BME280;73077;49.898;16.450;2024-03-23T03:15:44;96362.31;;;21.41;44.74
83183;BME280;73077;49.898;16.450;2024-03-23T03:18:11;96358.47;;;21.43;44.82
83183;BME280;73077;49.898;16.450;2024-03-23T03:20:40;96345.94;;;21.39;44.77
83183;BME280;73077;49.898;16.450;2024-03-23T03:23:08;96349.56;;;21.38;44.95
83183;BME280;73077;49.898;16.450;2024-03-23T03:25:35;96359.69;;;21.34;45.04
83183;BME280;73077;49.898;16.450;2024-03-23T03:28:00;96347.34;;;21.35;45.02
83183;BME280;73077;49.898;16.450;2024-03-23T03:30:28;96334.81;;;21.30;45.15
83183;BME280;73077;49.898;16.450;2024-03-23T03:32:54;96327.91;;;21.29;44.96
83183;BME280;73077;49.898;16.450;2024-03-23T03:35:20;96331.78;;;21.33;45.09
83183;BME280;73077;49.898;16.450;2024-03-23T03:37:46;96325.09;;;21.31;45.06
83183;BME280;73077;49.898;16.450;2024-03-23T03:40:12;96317.22;;;21.37;44.90
83183;BME280;73077;49.898;16.450;2024-03-23T03:42:40;96324.09;;;21.32;44.89
83183;BME280;73077;49.898;16.450;2024-03-23T03:45:06;96318.41;;;21.35;44.88
83183;BME280;73077;49.898;16.450;2024-03-23T03:47:33;96334.63;;;21.32;45.00
83183;BME280;73077;49.898;16.450;2024-03-23T03:50:00;96337.44;;;21.30;44.95
83183;BME280;73077;49.898;16.450;2024-03-23T03:52:25;96340.66;;;21.26;44.98
83183;BME280;73077;49.898;16.450;2024-03-23T03:54:51;96341.88;;;21.23;45.15
83183;BME280;73077;49.898;16.450;2024-03-23T03:57:17;96333.19;;;21.23;45.12
83183;BME280;73077;49.898;16.450;2024-03-23T03:59:42;96327.91;;;21.29;44.80
83183;BME280;73077;49.898;16.450;2024-03-23T04:02:08;96320.84;;;21.30;44.98
83183;BME280;73077;49.898;16.450;2024-03-23T04:04:34;96314.56;;;21.24;44.77
83183;BME280;73077;49.898;16.450;2024-03-23T04:07:00;96309.91;;;21.26;44.83
83183;BME280;73077;49.898;16.450;2024-03-23T04:09:26;96309.50;;;21.23;44.99
83183;BME280;73077;49.898;16.450;2024-03-23T04:11:52;96312.16;;;21.23;44.98
83183;BME280;73077;49.898;16.450;2024-03-23T04:14:17;96308.31;;;21.25;45.14
83183;BME280;73077;49.898;16.450;2024-03-23T04:16:43;96298.59;;;21.19;44.98
83183;BME280;73077;49.898;16.450;2024-03-23T04:19:09;96303.84;;;21.19;45.03
83183;BME280;73077;49.898;16.450;2024-03-23T04:21:36;96285.63;;;21.18;45.00
83183;BME280;73077;49.898;16.450;2024-03-23T04:24:03;96285.03;;;21.22;44.96
83183;BME280;73077;49.898;16.450;2024-03-23T04:26:29;96287.06;;;21.20;44.86
83183;BME280;73077;49.898;16.450;2024-03-23T04:28:54;96283.22;;;21.23;44.81
83183;BME280;73077;49.898;16.450;2024-03-23T04:31:20;96285.44;;;21.19;44.95
83183;BME280;73077;49.898;16.450;2024-03-23T04:33:45;96277.13;;;21.16;45.01
83183;BME280;73077;49.898;16.450;2024-03-23T04:36:11;96272.91;;;21.15;44.96
83183;BME280;73077;49.898;16.450;2024-03-23T04:38:37;96268.66;;;21.14;45.02
83183;BME280;73077;49.898;16.450;2024-03-23T04:41:03;96270.66;;;21.12;45.14
83183;BME280;73077;49.898;16.450;2024-03-23T04:43:29;96263.19;;;21.15;45.17
83183;BME280;73077;49.898;16.450;2024-03-23T04:45:56;96260.34;;;21.17;45.05
83183;BME280;73077;49.898;16.450;2024-03-23T04:48:23;96263.38;;;21.14;44.99
83183;BME280;73077;49.898;16.450;2024-03-23T04:50:49;96261.97;;;21.11;44.92
83183;BME280;73077;49.898;16.450;2024-03-23T04:53:16;96261.97;;;21.11;45.25
83183;BME280;73077;49.898;16.450;2024-03-23T04:55:42;96254.47;;;21.08;45.02
83183;BME280;73077;49.898;16.450;2024-03-23T04:58:08;96268.03;;;21.12;45.11
83183;BME280;73077;49.898;16.450;2024-03-23T05:00:34;96256.91;;;21.29;44.87
83183;BME280;73077;49.898;16.450;2024-03-23T05:03:00;96254.69;;;21.72;43.96
83183;BME280;73077;49.898;16.450;2024-03-23T05:05:25;96260.75;;;22.18;42.75
83183;BME280;73077;49.898;16.450;2024-03-23T05:07:51;96256.13;;;22.71;41.83
83183;BME280;73077;49.898;16.450;2024-03-23T05:10:17;96263.69;;;23.30;40.69
83183;BME280;73077;49.898;16.450;2024-03-23T05:12:42;96257.84;;;23.78;39.78
83183;BME280;73077;49.898;16.450;2024-03-23T05:15:10;96253.91;;;24.12;39.17
83183;BME280;73077;49.898;16.450;2024-03-23T05:17:35;96262.22;;;24.33;39.01
83183;BME280;73077;49.898;16.450;2024-03-23T05:20:03;96263.47;;;24.49;38.61
83183;BME280;73077;49.898;16.450;2024-03-23T05:22:30;96262.13;;;24.58;38.67
83183;BME280;73077;49.898;16.450;2024-03-23T05:24:56;96264.63;;;24.71;38.63
83183;BME280;73077;49.898;16.450;2024-03-23T05:27:22;96261.88;;;24.78;38.56
83183;BME280;73077;49.898;16.450;2024-03-23T05:29:49;96258.84;;;24.81;38.73
83183;BME280;73077;49.898;16.450;2024-03-23T05:32:15;96259.88;;;24.80;38.71
83183;BME280;73077;49.898;16.450;2024-03-23T05:34:40;96255.22;;;24.75;38.89
83183;BME280;73077;49.898;16.450;2024-03-23T05:37:07;96254.06;;;24.71;38.87
83183;BME280;73077;49.898;16.450;2024-03-23T05:39:33;96253.91;;;24.66;39.01
83183;BME280;73077;49.898;16.450;2024-03-23T05:41:58;96246.06;;;24.60;39.26
83183;BME280;73077;49.898;16.450;2024-03-23T05:44:24;96249.16;;;24.57;39.28
83183;BME280;73077;49.898;16.450;2024-03-23T05:46:50;96230.72;;;24.50;39.29
83183;BME280;73077;49.898;16.450;2024-03-23T05:49:15;96237.47;;;24.46;39.61
83183;BME280;73077;49.898;16.450;2024-03-23T05:51:42;96241.81;;;24.40;39.84
83183;BME280;73077;49.898;16.450;2024-03-23T05:54:07;96229.47;;;24.34;39.76
83183;BME280;73077;49.898;16.450;2024-03-23T05:56:33;96231.16;;;24.29;39.99
83183;BME280;73077;49.898;16.450;2024-03-23T05:58:59;96231.41;;;24.27;39.99
83183;BME280;73077;49.898;16.450;2024-03-23T06:01:24;96227.56;;;24.23;40.05
83183;BME280;73077;49.898;16.450;2024-03-23T06:03:54;96224.78;;;24.18;40.26
83183;BME280;73077;49.898;16.450;2024-03-23T06:06:20;96217.16;;;24.10;40.34
83183;BME280;73077;49.898;16.450;2024-03-23T06:08:47;96219.81;;;24.10;40.41
83183;BME280;73077;49.898;16.450;2024-03-23T06:11:12;96217.00;;;24.05;40.50
83183;BME280;73077;49.898;16.450;2024-03-23T06:13:38;96211.53;;;24.00;40.58
83183;BME280;73077;49.898;16.450;2024-03-23T06:16:04;96210.38;;;23.96;40.63
83183;BME280;73077;49.898;16.450;2024-03-23T06:18:30;96209.44;;;23.90;40.83
83183;BME280;73077;49.898;16.450;2024-03-23T06:20:57;96203.75;;;23.87;40.76
83183;BME280;73077;49.898;16.450;2024-03-23T06:23:22;96199.94;;;23.83;40.99
83183;BME280;73077;49.898;16.450;2024-03-23T06:25:48;96202.44;;;23.78;41.05
83183;BME280;73077;49.898;16.450;2024-03-23T06:28:14;96185.44;;;23.74;41.03
83183;BME280;73077;49.898;16.450;2024-03-23T06:30:41;96193.78;;;23.71;41.05
83183;BME280;73077;49.898;16.450;2024-03-23T06:33:08;96190.09;;;23.72;41.12
83183;BME280;73077;49.898;16.450;2024-03-23T06:35:34;96173.31;;;23.66;41.08
83183;BME280;73077;49.898;16.450;2024-03-23T06:37:59;96167.25;;;23.66;41.19
83183;BME280;73077;49.898;16.450;2024-03-23T06:40:25;96164.59;;;23.66;41.24
83183;BME280;73077;49.898;16.450;2024-03-23T06:42:51;96162.41;;;23.63;41.29
83183;BME280;73077;49.898;16.450;2024-03-23T06:45:17;96152.03;;;23.61;41.27
83183;BME280;73077;49.898;16.450;2024-03-23T06:47:49;96152.84;;;23.62;41.14
83183;BME280;73077;49.898;16.450;2024-03-23T06:50:15;96146.19;;;23.59;41.28
83183;BME280;73077;49.898;16.450;2024-03-23T06:52:41;96156.75;;;23.59;41.30
83183;BME280;73077;49.898;16.450;2024-03-23T06:55:07;96155.34;;;23.57;41.16
83183;BME280;73077;49.898;16.450;2024-03-23T06:57:34;96148.00;;;23.59;41.33
83183;BME280;73077;49.898;16.450;2024-03-23T06:59:59;96145.00;;;23.55;41.38
83183;BME280;73077;49.898;16.450;2024-03-23T07:02:25;96141.53;;;23.55;41.32
83183;BME280;73077;49.898;16.450;2024-03-23T07:04:51;96139.94;;;23.54;41.45
83183;BME280;73077;49.898;16.450;2024-03-23T07:07:16;96135.69;;;23.53;41.37
83183;BME280;73077;49.898;16.450;2024-03-23T07:09:42;96139.34;;;23.52;41.51
83183;BME280;73077;49.898;16.450;2024-03-23T07:12:08;96134.88;;;23.52;41.53
83183;BME280;73077;49.898;16.450;2024-03-23T07:14:34;96130.03;;;23.49;41.55
83183;BME280;73077;49.898;16.450;2024-03-23T07:16:59;96127.41;;;23.49;41.49
83183;BME280;73077;49.898;16.450;2024-03-23T07:19:25;96108.94;;;23.49;41.59
83183;BME280;73077;49.898;16.450;2024-03-23T07:21:52;96108.16;;;23.49;41.61
83183;BME280;73077;49.898;16.450;2024-03-23T07:24:18;96109.59;;;23.45;41.65
83183;BME280;73077;49.898;16.450;2024-03-23T07:26:43;96099.47;;;23.42;41.67
83183;BME280;73077;49.898;16.450;2024-03-23T07:29:09;96099.47;;;23.42;41.64
83183;BME280;73077;49.898;16.450;2024-03-23T07:31:34;96084.06;;;23.39;41.56
83183;BME280;73077;49.898;16.450;2024-03-23T07:34:00;96084.72;;;23.34;41.81
83183;BME280;73077;49.898;16.450;2024-03-23T07:36:26;96069.09;;;23.32;41.90
83183;BME280;73077;49.898;16.450;2024-03-23T07:38:51;96059.34;;;23.33;41.80
83183;BME280;73077;49.898;16.450;2024-03-23T07:41:18;96064.63;;;23.33;41.59
83183;BME280;73077;49.898;16.450;2024-03-23T07:43:45;96057.53;;;23.33;41.91
83183;BME280;73077;49.898;16.450;2024-03-23T07:46:11;96053.06;;;23.34;41.85
83183;BME280;73077;49.898;16.450;2024-03-23T07:48:39;96050.06;;;23.30;41.88
83183;BME280;73077;49.898;16.450;2024-03-23T07:51:09;96044.97;;;23.29;41.91
83183;BME280;73077;49.898;16.450;2024-03-23T07:53:36;96035.69;;;23.26;42.17
83183;BME280;73077;49.898;16.450;2024-03-23T07:56:07;96030.56;;;23.31;41.86
83183;BME280;73077;49.898;16.450;2024-03-23T07:58:34;96032.41;;;23.31;41.84
83183;BME280;73077;49.898;16.450;2024-03-23T08:01:08;96033.22;;;23.31;41.84
83183;BME280;73077;49.898;16.450;2024-03-23T08:03:38;96027.13;;;23.31;42.07
83183;BME280;73077;49.898;16.450;2024-03-23T08:08:39;96021.84;;;23.31;41.95
83183;BME280;73077;49.898;16.450;2024-03-23T08:11:05;96021.84;;;23.31;41.85
83183;BME280;73077;49.898;16.450;2024-03-23T08:13:31;96016.34;;;23.32;41.91
83183;BME280;73077;49.898;16.450;2024-03-23T08:15:58;96013.13;;;23.30;41.99
83183;BME280;73077;49.898;16.450;2024-03-23T08:18:24;96001.75;;;23.12;41.70
83183;BME280;73077;49.898;16.450;2024-03-23T08:20:57;95993.78;;;23.18;42.01
83183;BME280;73077;49.898;16.450;2024-03-23T08:23:24;95995.53;;;23.24;41.86
83183;BME280;73077;49.898;16.450;2024-03-23T08:25:54;95988.81;;;23.28;41.94
83183;BME280;73077;49.898;16.450;2024-03-23T08:28:22;95996.13;;;23.26;41.94
83183;BME280;73077;49.898;16.450;2024-03-23T08:30:48;95975.44;;;23.23;41.93
83183;BME280;73077;49.898;16.450;2024-03-23T08:33:15;95977.50;;;23.21;42.06
83183;BME280;73077;49.898;16.450;2024-03-23T08:35:41;95970.63;;;23.20;42.04
83183;BME280;73077;49.898;16.450;2024-03-23T08:38:07;95972.09;;;23.16;42.39
83183;BME280;73077;49.898;16.450;2024-03-23T08:40:32;95970.47;;;23.15;42.29
83183;BME280;73077;49.898;16.450;2024-03-23T08:42:58;95966.44;;;23.13;42.34
83183;BME280;73077;49.898;16.450;2024-03-23T08:45:25;95953.25;;;23.13;42.43
83183;BME280;73077;49.898;16.450;2024-03-23T08:47:51;95944.09;;;23.15;41.99
83183;BME280;73077;49.898;16.450;2024-03-23T08:50:17;95937.69;;;23.11;42.37
83183;BME280;73077;49.898;16.450;2024-03-23T08:52:42;95917.38;;;23.12;42.46
83183;BME280;73077;49.898;16.450;2024-03-23T08:55:09;95905.44;;;23.09;42.51
83183;BME280;73077;49.898;16.450;2024-03-23T08:57:35;95910.06;;;23.14;42.35
83183;BME280;73077;49.898;16.450;2024-03-23T09:00:02;95906.38;;;23.15;42.27
83183;BME280;73077;49.898;16.450;2024-03-23T09:02:28;95892.19;;;23.16;42.26
83183;BME280;73077;49.898;16.450;2024-03-23T09:04:53;95891.16;;;23.17;42.34
83183;BME280;73077;49.898;16.450;2024-03-23T09:07:19;95884.28;;;23.16;42.29
83183;BME280;73077;49.898;16.450;2024-03-23T09:09:44;95889.31;;;23.17;42.23
83183;BME280;73077;49.898;16.450;2024-03-23T09:12:10;95878.41;;;23.14;42.27
83183;BME280;73077;49.898;16.450;2024-03-23T09:14:36;95875.56;;;23.15;42.45
83183;BME280;73077;49.898;16.450;2024-03-23T09:17:01;95866.81;;;23.15;42.32
83183;BME280;73077;49.898;16.450;2024-03-23T09:19:30;95855.94;;;23.11;42.45
83183;BME280;73077;49.898;16.450;2024-03-23T09:21:56;95856.16;;;23.10;42.34
83183;BME280;73077;49.898;16.450;2024-03-23T09:24:21;95854.75;;;23.07;42.61
83183;BME280;73077;49.898;16.450;2024-03-23T09:26:47;95848.91;;;23.05;42.52
83183;BME280;73077;49.898;16.450;2024-03-23T09:29:13;95828.91;;;23.16;42.48
83183;BME280;73077;49.898;16.450;2024-03-23T09:31:40;95837.88;;;23.26;42.25
83183;BME280;73077;49.898;16.450;2024-03-23T09:34:06;95837.56;;;23.34;42.10
83183;BME280;73077;49.898;16.450;2024-03-23T09:36:32;95842.25;;;23.51;41.75
83183;BME280;73077;49.898;16.450;2024-03-23T09:38:57;95835.19;;;23.63;41.43
83183;BME280;73077;49.898;16.450;2024-03-23T09:41:23;95834.50;;;23.79;41.14
83183;BME280;73077;49.898;16.450;2024-03-23T09:43:53;95819.63;;;23.96;40.82
83183;BME280;73077;49.898;16.450;2024-03-23T09:46:19;95819.56;;;24.14;40.49
83183;BME280;73077;49.898;16.450;2024-03-23T09:48:47;95821.38;;;24.25;40.30
83183;BME280;73077;49.898;16.450;2024-03-23T09:51:15;95802.31;;;24.35;40.25
83183;BME280;73077;49.898;16.450;2024-03-23T09:53:41;95783.22;;;24.44;39.97
83183;BME280;73077;49.898;16.450;2024-03-23T09:56:08;95786.88;;;24.55;39.91
83183;BME280;73077;49.898;16.450;2024-03-23T09:58:34;95782.63;;;24.66;39.70
83183;BME280;73077;49.898;16.450;2024-03-23T10:00:59;95770.63;;;24.75;39.59
83183;BME280;73077;49.898;16.450;2024-03-23T10:03:25;95770.28;;;24.83;39.36
83183;BME280;73077;49.898;16.450;2024-03-23T10:06:02;95766.69;;;24.89;39.57
83183;BME280;73077;49.898;16.450;2024-03-23T10:08:29;95769.00;;;24.97;39.51
83183;BME280;73077;49.898;16.450;2024-03-23T10:10:55;95767.13;;;24.97;39.38
83183;BME280;73077;49.898;16.450;2024-03-23T10:13:25;95757.03;;;24.94;39.48
83183;BME280;73077;49.898;16.450;2024-03-23T10:15:58;95758.09;;;24.93;39.54
83183;BME280;73077;49.898;16.450;2024-03-23T10:18:25;95749.56;;;24.91;39.68
83183;BME280;73077;49.898;16.450;2024-03-23T10:23:35;95733.84;;;24.85;39.90
83183;BME280;73077;49.898;16.450;2024-03-23T10:26:21;95727.66;;;24.79;39.96
83183;BME280;73077;49.898;16.450;2024-03-23T10:29:05;95722.56;;;24.78;39.97
83183;BME280;73077;49.898;16.450;2024-03-23T10:31:36;95715.38;;;24.73;40.12
83183;BME280;73077;49.898;16.450;2024-03-23T10:34:02;95710.53;;;24.70;39.94
83183;BME280;73077;49.898;16.450;2024-03-23T10:36:29;95715.03;;;24.70;40.25
83183;BME280;73077;49.898;16.450;2024-03-23T10:38:57;95714.69;;;24.66;40.26
83183;BME280;73077;49.898;16.450;2024-03-23T10:41:31;95710.13;;;24.62;40.27
83183;BME280;73077;49.898;16.450;2024-03-23T10:43:58;95697.84;;;24.56;40.40
83183;BME280;73077;49.898;16.450;2024-03-23T10:46:25;95697.97;;;24.49;40.51
83183;BME280;73077;49.898;16.450;2024-03-23T10:48:50;95687.09;;;24.45;40.68
83183;BME280;73077;49.898;16.450;2024-03-23T10:51:16;95686.50;;;24.43;40.97
83183;BME280;73077;49.898;16.450;2024-03-23T10:53:42;95680.56;;;24.36;41.19
83183;BME280;73077;49.898;16.450;2024-03-23T10:56:08;95677.34;;;24.34;40.85
83183;BME280;73077;49.898;16.450;2024-03-23T10:58:41;95663.81;;;24.31;41.16
83183;BME280;73077;49.898;16.450;2024-03-23T11:01:11;95665.56;;;24.25;41.03
83183;BME280;73077;49.898;16.450;2024-03-23T11:03:39;95673.94;;;24.22;41.18
83183;BME280;73077;49.898;16.450;2024-03-23T11:06:06;95668.53;;;24.17;41.24
83183;BME280;73077;49.898;16.450;2024-03-23T11:11:17;95679.25;;;24.11;41.49
83183;BME280;73077;49.898;16.450;2024-03-23T11:13:48;95679.13;;;24.06;41.49
83183;BME280;73077;49.898;16.450;2024-03-23T11:16:24;95681.41;;;24.02;41.68
83183;BME280;73077;49.898;16.450;2024-03-23T11:18:53;95689.78;;;23.99;41.64
83183;BME280;73077;49.898;16.450;2024-03-23T11:21:53;95727.44;;;23.94;41.73
83183;BME280;73077;49.898;16.450;2024-03-23T11:24:22;95836.72;;;23.93;41.80
83183;BME280;73077;49.898;16.450;2024-03-23T11:26:48;95864.16;;;23.92;41.77
83183;BME280;73077;49.898;16.450;2024-03-23T11:29:16;95878.03;;;23.88;41.91
83183;BME280;73077;49.898;16.450;2024-03-23T11:31:49;95895.34;;;23.84;42.00
83183;BME280;73077;49.898;16.450;2024-03-23T11:34:15;95897.88;;;23.79;42.03
83183;BME280;73077;49.898;16.450;2024-03-23T11:36:43;95923.44;;;23.78;42.09
83183;BME280;73077;49.898;16.450;2024-03-23T11:39:16;95940.31;;;23.77;41.92
83183;BME280;73077;49.898;16.450;2024-03-23T11:41:50;95943.88;;;23.71;42.00
83183;BME280;73077;49.898;16.450;2024-03-23T11:44:19;95951.19;;;23.69;42.05
83183;BME280;73077;49.898;16.450;2024-03-23T11:46:46;95953.25;;;23.67;42.07
83183;BME280;73077;49.898;16.450;2024-03-23T11:51:52;95950.47;;;23.62;42.17
83183;BME280;73077;49.898;16.450;2024-03-23T11:54:25;95949.88;;;23.60;42.11
83183;BME280;73077;49.898;16.450;2024-03-23T11:57:01;95950.34;;;23.57;42.19
83183;BME280;73077;49.898;16.450;2024-03-23T12:02:13;95937.81;;;23.53;42.47
83183;BME280;73077;49.898;16.450;2024-03-23T12:04:40;95931.94;;;23.51;42.47
83183;BME280;73077;49.898;16.450;2024-03-23T12:07:18;95923.91;;;23.46;42.49
83183;BME280;73077;49.898;16.450;2024-03-23T12:09:45;95919.66;;;23.45;42.48
83183;BME280;73077;49.898;16.450;2024-03-23T12:12:15;95909.53;;;23.42;42.53
83183;BME280;73077;49.898;16.450;2024-03-23T12:14:46;95912.41;;;23.40;42.67
83183;BME280;73077;49.898;16.450;2024-03-23T12:17:26;95897.78;;;23.37;42.70
83183;BME280;73077;49.898;16.450;2024-03-23T12:19:51;95901.47;;;23.36;42.64
83183;BME280;73077;49.898;16.450;2024-03-23T12:22:22;95903.50;;;23.34;42.65
83183;BME280;73077;49.898;16.450;2024-03-23T12:24:48;95922.19;;;23.33;42.70
83183;BME280;73077;49.898;16.450;2024-03-23T12:27:14;95915.53;;;23.30;42.84
83183;BME280;73077;49.898;16.450;2024-03-23T12:29:40;95917.59;;;23.28;42.89
83183;BME280;73077;49.898;16.450;2024-03-23T12:32:12;95910.91;;;23.26;42.76
83183;BME280;73077;49.898;16.450;2024-03-23T12:34:37;95907.50;;;23.25;42.85
83183;BME280;73077;49.898;16.450;2024-03-23T12:37:04;95893.94;;;23.22;42.98
83183;BME280;73077;49.898;16.450;2024-03-23T12:39:29;95893.13;;;23.21;43.00
83183;BME280;73077;49.898;16.450;2024-03-23T12:41:56;95913.03;;;23.17;43.24
83183;BME280;73077;49.898;16.450;2024-03-23T12:44:22;95909.81;;;23.15;43.08
83183;BME280;73077;49.898;16.450;2024-03-23T12:46:49;95915.09;;;23.15;43.26
83183;BME280;73077;49.898;16.450;2024-03-23T12:49:15;95912.69;;;23.14;43.19
83183;BME280;73077;49.898;16.450;2024-03-23T12:51:52;95912.09;;;23.12;43.29
83183;BME280;73077;49.898;16.450;2024-03-23T12:54:19;95915.78;;;23.11;43.44
83183;BME280;73077;49.898;16.450;2024-03-23T12:56:46;95920.44;;;23.09;43.34
83183;BME280;73077;49.898;16.450;2024-03-23T12:59:11;95906.47;;;23.08;43.35
83183;BME280;73077;49.898;16.450;2024-03-23T13:01:38;95905.88;;;23.06;43.32
83183;BME280;73077;49.898;16.450;2024-03-23T13:04:04;95897.97;;;23.06;43.30
83183;BME280;73077;49.898;16.450;2024-03-23T13:06:30;95898.91;;;23.12;43.28
83183;BME280;73077;49.898;16.450;2024-03-23T13:09:00;95903.53;;;23.16;43.10
83183;BME280;73077;49.898;16.450;2024-03-23T13:11:28;95905.13;;;23.17;42.92
83183;BME280;73077;49.898;16.450;2024-03-23T13:13:54;95896.00;;;23.20;42.84
83183;BME280;73077;49.898;16.450;2024-03-23T13:16:20;95902.22;;;23.25;42.83
83183;BME280;73077;49.898;16.450;2024-03-23T13:18:45;95903.72;;;23.33;42.68
83183;BME280;73077;49.898;16.450;2024-03-23T13:21:11;95899.34;;;23.45;42.45
83183;BME280;73077;49.898;16.450;2024-03-23T13:23:37;95899.84;;;23.54;42.25
83183;BME280;73077;49.898;16.450;2024-03-23T13:26:04;95894.94;;;23.57;42.15
83183;BME280;73077;49.898;16.450;2024-03-23T13:28:29;95887.59;;;23.59;42.12
83183;BME280;73077;49.898;16.450;2024-03-23T13:30:56;95887.59;;;23.59;42.03
83183;BME280;73077;49.898;16.450;2024-03-23T13:33:23;95879.44;;;23.61;42.16
83183;BME280;73077;49.898;16.450;2024-03-23T13:35:53;95885.16;;;23.58;42.15
83183;BME280;73077;49.898;16.450;2024-03-23T13:38:22;95899.41;;;23.57;42.13
83183;BME280;73077;49.898;16.450;2024-03-23T13:40:57;95890.69;;;23.56;42.24
83183;BME280;73077;49.898;16.450;2024-03-23T13:43:24;95893.53;;;23.55;42.15
83183;BME280;73077;49.898;16.450;2024-03-23T13:46:01;95887.09;;;23.51;42.73
83183;BME280;73077;49.898;16.450;2024-03-23T13:48:27;95901.88;;;23.52;42.58
83183;BME280;73077;49.898;16.450;2024-03-23T13:51:04;95903.13;;;23.49;42.52
83183;BME280;73077;49.898;16.450;2024-03-23T13:53:30;95901.56;;;23.48;42.52